logo
Rechercher aéroport 
image banner adimage banner adimage banner ad
image banner ad

EPSP - Sierakow-Lutomek

Situé à , Poland

ICAO - , IATA -

Données fournies par Airmate  

Information générale

Coordonnées: N52°36'30" E16°9'19"
Élévation : feet MSL.
 
Voir autres Aéroports à Greater Poland

Données opérationnelles

Special qualification required
Heure actuelle UTC:
Heure actuelle locale:
Météo à : EPPO - Poznan/Lawica ( 50 km )
METAR: EPPO 241200Z 29011KT 9999 -TSRA BKN021CB 18/16 Q1014
TAF: TAF EPPO 241130Z 2412/2512 29008KT 9999 BKN040 TEMPO 2412/2417 4000 TSRA BKN030CB PROB40 TEMPO 2412/2416 31020G34KT 2000 +TSRA BKN014 BKN025CB PROB40 TEMPO 2417/2419 -SHRA BKN025CB TEMPO 2500/2504 3000 BR
Voir NOTAMs / SUP AIP / TFR affectant cet aéroport [VIEW]
Fréquences de communication: [VIEW]

Pistes:

Identifiant RWYQFULongueur (ft)Largeur (ft)SurfaceLDA (ft)
0900UNK
2700UNK

Coordonnées de l'aéroport

Adresse: Poland

Vue satellite de EPSP